メインページ
METAR-TAF:

METAR-TAF

空港 :

Ingenika Point, ブリティッシュコロンビア州, カナダ

緯度: 56-48N, 経度: 124-54W, 海抜: 680m

現時点の気象観測

当レポートは13時間25分前の18:39(UTC)に作成
北東の風 13kt、最大28ktの突風を伴う
気温 4°C
湿度 93%
気圧 1000 hPa
視程: 2.4km
高度1000ftの曇り
小雨, 靄

METAR: CWWU 211839Z 05013G28KT 1 1/2SM -RA BR OVC010 04/03 A2953 RMK FG4SF4 PRESFR SLP001

時間: 00:04 (08:04 UTC)

予報

当レポートは2時間4分前の06:00(UTC)に作成
予報は22日の 06時(UTC)から 23日の 06時(UTC)まで有効
の風 30kt、最大40ktの突風を伴う
視程: 4.8km
高度1000ftの曇り
小雨, 靄
22日の 06時(UTC)から 22日の 12時(UTC)まで一時的に
視程: 1.6km
高度700ftの曇り
小雨, 靄
22日の 1500時(UTC)から
の風 28kt、最大38ktの突風を伴う
視程: 9.7km
高度1000ftの曇り
弱いにわか雨, 靄
22日の 2100時(UTC)から
北/北西の風 20kt、最大30ktの突風を伴う
視程: 10km
高度1000ftの曇り
弱いにわか雨
23日の 0300時(UTC)から
北西の風 15kt、最大25ktの突風を伴う
視程: 10km
高度1000ftの曇り

TAF: CWWU 220600Z 2206/2306 01030G40KT 3SM -RA BR OVC010 TEMPO 2206/2212 1SM -RA BR OVC007 FM221500 35028G38KT 6SM -SHRA BR OVC010 FM222100 33020G30KT P6SM -SHRA OVC010 FM230300 31015G25KT P6SM OVC010 RMK FCST BASED ON AUTO OBS. NXT FCST BY 221200Z

4,000以上の空港の気象観測と天気予報(METAR報とTAF報)

利用可能な観測所は地図上に黄色い丸と赤い丸で示す。

丸の上にカーソルを重ねると観測所名を参照できる。

次にクリックすると気象観測と天気予報を参照できる。

マップの切り替え:黒色「×」印の緑ボタンをクリックして拡大、「-」印の緑ボタンをクリックして縮小、緑色の三角印をクリックして隣りの地図に切り替え


METAR-TAF: